createdAt,value
2019-04-27T00:02:23.039Z,953.19
2019-04-27T00:04:48.678Z,953.18
2019-04-27T00:07:17.026Z,953.14
2019-04-27T00:09:49.961Z,953.15
2019-04-27T00:12:08.020Z,953.15
2019-04-27T00:14:34.351Z,953.10
2019-04-27T00:17:00.664Z,953.16
2019-04-27T00:19:27.353Z,953.11
2019-04-27T00:21:53.321Z,953.19
2019-04-27T00:27:03.681Z,953.04
2019-04-27T00:29:29.985Z,953.07
2019-04-27T00:31:56.348Z,953.09
2019-04-27T00:34:23.627Z,953.06
2019-04-27T00:36:48.980Z,953.10
2019-04-27T00:39:15.296Z,953.08
2019-04-27T00:41:43.007Z,953.14
2019-04-27T00:44:07.938Z,953.04
2019-04-27T00:46:34.242Z,953.07
2019-04-27T00:49:00.580Z,953.04
2019-04-27T00:51:26.885Z,953.02
2019-04-27T00:53:54.972Z,953.05
2019-04-27T00:56:19.620Z,953.10
2019-04-27T00:58:46.001Z,953.07
2019-04-27T01:01:12.694Z,953.10
2019-04-27T01:03:38.616Z,953.09
2019-04-27T01:06:04.950Z,953.08
2019-04-27T01:08:31.273Z,953.04
2019-04-27T01:10:57.610Z,953.02
2019-04-27T01:13:23.946Z,952.98
2019-04-27T01:15:50.278Z,952.93
2019-04-27T01:18:16.611Z,952.90
2019-04-27T01:20:42.942Z,952.92
2019-04-27T01:23:10.704Z,952.91
2019-04-27T01:25:35.574Z,952.84
2019-04-27T01:28:01.890Z,952.83
2019-04-27T01:30:28.926Z,952.81
2019-04-27T01:32:54.530Z,952.81
2019-04-27T01:35:20.864Z,952.79
2019-04-27T01:37:48.684Z,952.78
2019-04-27T01:40:13.485Z,952.72
2019-04-27T01:42:39.821Z,952.79
2019-04-27T01:45:06.128Z,952.79
2019-04-27T01:47:32.485Z,952.74
2019-04-27T01:49:58.816Z,952.73
2019-04-27T01:52:25.124Z,952.64
2019-04-27T01:54:51.450Z,952.76
2019-04-27T01:57:19.338Z,952.77
2019-04-27T01:59:44.068Z,952.69
2019-04-27T02:02:10.609Z,952.65
2019-04-27T02:04:36.718Z,952.66
2019-04-27T02:07:03.048Z,952.66
2019-04-27T02:09:29.357Z,952.65
2019-04-27T02:11:55.694Z,952.66
2019-04-27T02:14:22.004Z,952.65
2019-04-27T02:16:49.236Z,952.65
2019-04-27T02:19:14.661Z,952.60
2019-04-27T02:21:40.969Z,952.58
2019-04-27T02:24:07.296Z,952.62
2019-04-27T02:26:33.648Z,952.67
2019-04-27T02:28:59.958Z,952.64
2019-04-27T02:31:26.311Z,952.58
2019-04-27T02:33:52.623Z,952.61
2019-04-27T02:36:20.212Z,952.62
2019-04-27T02:38:45.282Z,952.66
2019-04-27T02:41:11.653Z,952.63
2019-04-27T02:43:39.950Z,952.62
2019-04-27T02:46:04.318Z,952.54
2019-04-27T02:48:30.656Z,952.52
2019-04-27T02:50:56.963Z,952.48
2019-04-27T02:53:23.307Z,952.42
2019-04-27T02:55:50.032Z,952.44
2019-04-27T02:58:15.934Z,952.46
2019-04-27T03:00:42.268Z,952.41
2019-04-27T03:03:10.294Z,952.45
2019-04-27T03:05:34.906Z,952.41
2019-04-27T03:08:01.215Z,952.38
2019-04-27T03:10:29.647Z,952.38
2019-04-27T03:12:53.896Z,952.43
2019-04-27T03:15:23.548Z,952.43
2019-04-27T03:17:46.539Z,952.42
2019-04-27T03:20:12.849Z,952.35
2019-04-27T03:22:39.847Z,952.32
2019-04-27T03:25:05.498Z,952.35
2019-04-27T03:27:31.830Z,952.27
2019-04-27T03:29:59.763Z,952.24
2019-04-27T03:32:24.473Z,952.30
2019-04-27T03:34:52.369Z,952.30
2019-04-27T03:37:17.106Z,952.25
2019-04-27T03:39:43.430Z,952.27
2019-04-27T03:42:10.491Z,952.22
2019-04-27T03:44:36.065Z,952.19
2019-04-27T03:47:02.395Z,952.17
2019-04-27T03:49:37.471Z,952.18
2019-04-27T03:51:55.038Z,952.15
2019-04-27T03:54:22.194Z,952.20
2019-04-27T03:56:47.717Z,952.16
2019-04-27T03:59:14.038Z,952.24
2019-04-27T04:01:40.344Z,952.27
2019-04-27T04:04:06.694Z,952.26
2019-04-27T04:06:32.997Z,952.27
2019-04-27T04:09:00.197Z,952.30
2019-04-27T04:11:25.644Z,952.33
2019-04-27T04:13:52.002Z,952.29
2019-04-27T04:16:20.322Z,952.31
2019-04-27T04:18:44.610Z,952.25
2019-04-27T04:21:10.944Z,952.28
2019-04-27T04:23:37.262Z,952.21
2019-04-27T04:26:03.626Z,952.24
2019-04-27T04:28:29.950Z,952.27
2019-04-27T04:30:56.285Z,952.20
2019-04-27T04:33:22.594Z,952.25
2019-04-27T04:35:49.746Z,952.16
2019-04-27T04:38:15.271Z,952.21
2019-04-27T04:40:41.563Z,952.18
2019-04-27T04:43:10.535Z,952.17
2019-04-27T04:45:34.205Z,952.18
2019-04-27T04:48:00.529Z,952.19
2019-04-27T04:50:26.833Z,952.24
2019-04-27T04:52:53.163Z,952.22
2019-04-27T04:55:20.370Z,952.21
2019-04-27T04:57:45.805Z,952.21
2019-04-27T05:00:12.139Z,952.23
2019-04-27T05:02:39.697Z,952.19
2019-04-27T05:05:04.775Z,952.16
2019-04-27T05:07:31.109Z,952.22
2019-04-27T05:09:58.724Z,952.08
2019-04-27T05:12:23.772Z,951.99
2019-04-27T05:14:50.100Z,952.03
2019-04-27T05:17:16.415Z,952.00
2019-04-27T05:19:42.756Z,952.04
2019-04-27T05:22:09.392Z,951.99
2019-04-27T05:24:35.390Z,952.00
2019-04-27T05:27:01.721Z,952.03
2019-04-27T05:29:29.286Z,952.02
2019-04-27T05:31:54.354Z,951.91
2019-04-27T05:34:20.667Z,952.02
2019-04-27T05:36:48.707Z,952.00
2019-04-27T05:39:13.450Z,951.99
2019-04-27T05:41:41.761Z,952.02
2019-04-27T05:44:07.598Z,952.01
2019-04-27T05:46:35.756Z,951.97
2019-04-27T05:49:01.711Z,951.98
2019-04-27T05:51:24.938Z,952.02
2019-04-27T05:53:51.270Z,952.00
2019-04-27T05:56:19.306Z,952.05
2019-04-27T05:58:43.927Z,951.98
2019-04-27T06:01:11.264Z,951.99
2019-04-27T06:03:36.572Z,951.98
2019-04-27T06:06:02.895Z,951.90
2019-04-27T06:08:29.544Z,951.93
2019-04-27T06:10:55.527Z,951.93
2019-04-27T06:13:21.831Z,951.91
2019-04-27T06:15:49.953Z,951.93
2019-04-27T06:18:14.492Z,951.92
2019-04-27T06:20:51.198Z,951.91
2019-04-27T06:23:08.875Z,951.89
2019-04-27T06:25:33.457Z,951.88
2019-04-27T06:27:59.793Z,951.87
2019-04-27T06:30:26.100Z,951.78
2019-04-27T06:32:52.415Z,951.74
2019-04-27T06:35:18.744Z,951.74
2019-04-27T06:37:45.061Z,951.77
2019-04-27T06:40:11.387Z,951.81
2019-04-27T06:42:39.558Z,951.82
2019-04-27T06:45:04.027Z,951.80
2019-04-27T06:47:30.336Z,951.82
2019-04-27T06:49:58.558Z,951.83
2019-04-27T06:52:23.015Z,951.81
2019-04-27T06:54:49.321Z,951.85
2019-04-27T06:57:15.651Z,951.77
2019-04-27T06:59:41.958Z,951.82
2019-04-27T07:02:08.745Z,951.80
2019-04-27T07:04:34.600Z,951.75
2019-04-27T07:07:01.729Z,951.72
2019-04-27T07:09:27.254Z,951.64
2019-04-27T07:11:53.578Z,951.68
2019-04-27T07:14:19.908Z,951.71
2019-04-27T07:16:46.214Z,951.71
2019-04-27T07:19:12.521Z,951.66
2019-04-27T07:21:39.953Z,951.71
2019-04-27T07:24:05.182Z,951.65
2019-04-27T07:26:31.501Z,951.64
2019-04-27T07:28:59.419Z,951.68
2019-04-27T07:31:24.121Z,951.65
2019-04-27T07:33:50.454Z,951.69
2019-04-27T07:36:16.770Z,951.70
2019-04-27T07:38:43.091Z,951.58
2019-04-27T07:41:09.716Z,951.56
2019-04-27T07:43:35.728Z,951.54
2019-04-27T07:46:02.053Z,951.57
2019-04-27T07:48:28.616Z,951.59
2019-04-27T07:50:54.722Z,951.55
2019-04-27T07:53:21.060Z,951.53
2019-04-27T07:55:47.361Z,951.51
2019-04-27T07:58:13.685Z,951.51
2019-04-27T08:00:39.992Z,951.48
2019-04-27T08:03:06.351Z,951.41
2019-04-27T08:05:32.651Z,951.34
2019-04-27T08:08:00.185Z,951.32
2019-04-27T08:10:25.362Z,951.29
2019-04-27T08:12:51.759Z,951.25
2019-04-27T08:15:18.944Z,951.27
2019-04-27T08:17:44.385Z,951.26
2019-04-27T08:20:10.739Z,951.21
2019-04-27T08:22:38.775Z,951.25
2019-04-27T08:25:03.369Z,951.16
2019-04-27T08:27:29.672Z,951.17
2019-04-27T08:29:56.009Z,951.11
2019-04-27T08:32:22.340Z,951.10
2019-04-27T08:34:49.605Z,951.05
2019-04-27T08:37:14.971Z,951.09
2019-04-27T08:39:41.281Z,951.03
2019-04-27T08:42:09.395Z,951.01
2019-04-27T08:44:33.926Z,951.00
2019-04-27T08:47:00.256Z,950.92
2019-04-27T08:49:26.600Z,950.94
2019-04-27T08:51:59.272Z,950.93
2019-04-27T08:54:19.312Z,950.87
2019-04-27T08:56:45.559Z,950.87
2019-04-27T08:59:11.863Z,950.78
2019-04-27T09:01:39.691Z,950.69
2019-04-27T09:04:04.502Z,950.66
2019-04-27T09:06:31.189Z,950.63
2019-04-27T09:08:58.817Z,950.63
2019-04-27T09:11:23.477Z,950.65
2019-04-27T09:13:49.815Z,950.61
2019-04-27T09:16:16.144Z,950.56
2019-04-27T09:18:42.475Z,950.53
2019-04-27T09:21:10.464Z,950.48
2019-04-27T09:23:35.099Z,950.50
2019-04-27T09:26:01.406Z,950.46
2019-04-27T09:28:29.323Z,950.36
2019-04-27T09:30:54.047Z,950.34
2019-04-27T09:33:22.234Z,950.29
2019-04-27T09:35:46.717Z,950.26
2019-04-27T09:38:12.999Z,950.21
2019-04-27T09:40:39.347Z,950.18
2019-04-27T09:43:07.398Z,950.15
2019-04-27T09:45:32.009Z,950.07
2019-04-27T09:47:58.317Z,950.00
2019-04-27T09:50:28.024Z,950.01
2019-04-27T09:52:50.946Z,949.98
2019-04-27T09:55:17.267Z,949.89
2019-04-27T09:57:43.594Z,949.83
2019-04-27T10:00:09.903Z,949.75
2019-04-27T10:02:36.691Z,949.71
2019-04-27T10:05:02.615Z,949.67
2019-04-27T10:07:28.911Z,949.62
2019-04-27T10:09:55.984Z,949.58
2019-04-27T10:12:21.647Z,949.56
2019-04-27T10:14:48.015Z,949.49
2019-04-27T10:17:14.336Z,949.41
2019-04-27T10:19:40.637Z,949.49
2019-04-27T10:22:07.019Z,949.43
2019-04-27T10:24:33.281Z,949.27
2019-04-27T10:26:59.592Z,949.24
2019-04-27T10:29:26.798Z,949.21
2019-04-27T10:31:52.264Z,949.16
2019-04-27T10:34:18.597Z,949.15
2019-04-27T10:36:46.068Z,949.16
2019-04-27T10:39:13.289Z,949.08
2019-04-27T10:41:37.559Z,949.12
2019-04-27T10:44:03.893Z,949.04
2019-04-27T10:46:30.209Z,949.06
2019-04-27T10:48:56.516Z,948.93
2019-04-27T10:51:22.846Z,948.82
2019-04-27T10:53:49.180Z,948.78
2019-04-27T10:56:15.515Z,948.64
2019-04-27T10:58:41.820Z,948.56
2019-04-27T11:01:08.154Z,948.56
2019-04-27T11:03:35.676Z,948.60
2019-04-27T11:06:00.778Z,948.59
2019-04-27T11:08:27.111Z,948.59
2019-04-27T11:10:53.424Z,948.54
2019-04-27T11:13:19.846Z,948.56
2019-04-27T11:15:46.254Z,948.50
2019-04-27T11:18:12.502Z,948.55
2019-04-27T11:20:38.813Z,948.44
2019-04-27T11:23:09.416Z,948.50
2019-04-27T11:25:31.471Z,948.47
2019-04-27T11:27:57.964Z,948.47
2019-04-27T11:30:24.111Z,948.38
2019-04-27T11:32:50.453Z,948.36
2019-04-27T11:35:16.758Z,948.33
2019-04-27T11:37:43.087Z,948.22
2019-04-27T11:40:09.392Z,948.21
2019-04-27T11:42:35.721Z,948.28
2019-04-27T11:45:02.049Z,948.32
2019-04-27T11:47:28.353Z,948.29
2019-04-27T11:49:54.685Z,948.36
2019-04-27T11:52:20.991Z,948.36
2019-04-27T11:54:47.327Z,948.31
2019-04-27T11:57:13.627Z,948.32
2019-04-27T11:59:39.960Z,948.33
2019-04-27T12:02:06.270Z,948.20
2019-04-27T12:04:32.590Z,948.34
2019-04-27T12:06:58.933Z,948.29
2019-04-27T12:17:20.246Z,948.06
2019-04-27T12:19:46.585Z,948.16
2019-04-27T12:22:12.877Z,948.28
2019-04-27T12:24:39.214Z,948.69
2019-04-27T12:27:05.766Z,949.01
2019-04-27T12:29:31.845Z,949.09
2019-04-27T12:31:58.229Z,949.06
2019-04-27T12:34:25.598Z,949.17
2019-04-27T12:36:53.168Z,949.00
2019-04-27T12:39:17.199Z,949.06
2019-04-27T12:41:43.522Z,949.29
2019-04-27T12:44:09.835Z,949.47
2019-04-27T12:46:36.165Z,949.66
2019-04-27T12:49:02.497Z,949.67
2019-04-27T12:51:28.807Z,949.70
2019-04-27T12:53:55.961Z,949.69
2019-04-27T12:56:21.482Z,949.67
2019-04-27T12:58:47.796Z,949.72
2019-04-27T13:01:15.757Z,949.60
2019-04-27T13:03:40.450Z,949.41
2019-04-27T13:06:06.786Z,949.29
2019-04-27T13:08:33.141Z,949.13
2019-04-27T13:10:59.512Z,949.08
2019-04-27T13:13:26.669Z,948.99
2019-04-27T13:15:52.173Z,949.14
2019-04-27T13:18:18.505Z,949.21
2019-04-27T13:20:44.857Z,949.16
2019-04-27T13:23:11.195Z,949.10
2019-04-27T13:25:38.557Z,949.01
2019-04-27T13:28:05.568Z,948.85
2019-04-27T13:30:30.185Z,948.78
2019-04-27T13:32:56.505Z,948.74
2019-04-27T13:35:22.844Z,948.71
2019-04-27T13:37:49.154Z,948.74
2019-04-27T13:40:17.089Z,948.81
2019-04-27T13:42:41.792Z,948.83
2019-04-27T13:45:08.225Z,948.63
2019-04-27T13:47:36.617Z,948.49
2019-04-27T13:50:00.865Z,948.38
2019-04-27T13:52:29.824Z,948.30
2019-04-27T13:54:53.509Z,948.16
2019-04-27T13:57:19.837Z,948.17
2019-04-27T13:59:46.176Z,948.35
2019-04-27T14:02:13.519Z,948.57
2019-04-27T14:04:38.865Z,948.68
2019-04-27T14:07:05.175Z,948.69
2019-04-27T14:09:34.253Z,948.62
2019-04-27T14:12:00.572Z,948.69
2019-04-27T14:14:28.800Z,948.58
2019-04-27T14:16:53.274Z,948.70
2019-04-27T14:19:19.583Z,948.77
2019-04-27T14:21:45.923Z,948.38
2019-04-27T14:24:12.306Z,948.21
2019-04-27T14:26:38.707Z,948.29
2019-04-27T14:29:04.942Z,948.58
2019-04-27T14:31:31.257Z,948.64
2019-04-27T14:33:58.724Z,948.69
2019-04-27T14:36:23.897Z,948.64
2019-04-27T14:38:50.231Z,948.83
2019-04-27T14:41:16.527Z,948.97
2019-04-27T14:43:42.860Z,949.17
2019-04-27T14:46:09.178Z,949.62
2019-04-27T14:48:35.508Z,949.71
2019-04-27T14:51:01.839Z,950.08
2019-04-27T14:53:28.293Z,950.35
2019-04-27T14:55:54.467Z,950.61
2019-04-27T14:58:20.782Z,950.28
2019-04-27T15:00:47.113Z,950.52
2019-04-27T15:03:13.473Z,950.85
2019-04-27T15:05:39.785Z,950.96
2019-04-27T15:08:09.598Z,950.88
2019-04-27T15:10:34.405Z,951.02
2019-04-27T15:13:01.697Z,950.97
2019-04-27T15:15:28.334Z,951.09
2019-04-27T15:17:51.527Z,951.13
2019-04-27T15:20:17.844Z,951.15
2019-04-27T15:22:44.229Z,951.15
2019-04-27T15:25:13.649Z,951.21
2019-04-27T15:27:37.734Z,951.16
2019-04-27T15:30:08.544Z,951.18
2019-04-27T15:32:29.537Z,951.26
2019-04-27T15:34:58.814Z,951.18
2019-04-27T15:37:22.183Z,951.24
2019-04-27T15:39:50.330Z,951.19
2019-04-27T15:42:14.826Z,951.26
2019-04-27T15:44:44.143Z,951.18
2019-04-27T15:47:10.388Z,951.19
2019-04-27T15:49:33.820Z,951.21
2019-04-27T15:52:00.254Z,951.18
2019-04-27T15:54:32.031Z,951.17
2019-04-27T15:56:52.802Z,951.11
2019-04-27T15:59:19.130Z,951.19
2019-04-27T16:01:45.438Z,951.21
2019-04-27T16:04:11.750Z,951.27
2019-04-27T16:06:38.496Z,951.21
2019-04-27T16:09:04.393Z,951.29
2019-04-27T16:11:30.757Z,951.25
2019-04-27T16:13:58.746Z,951.16
2019-04-27T16:16:24.533Z,951.06
2019-04-27T16:18:49.724Z,950.95
2019-04-27T16:21:17.866Z,950.86
2019-04-27T16:23:43.199Z,950.84
2019-04-27T16:26:10.951Z,950.84
2019-04-27T16:28:35.148Z,950.76
2019-04-27T16:31:01.455Z,950.71
2019-04-27T16:33:28.802Z,950.54
2019-04-27T16:35:59.499Z,950.31
2019-04-27T16:38:20.473Z,950.10
2019-04-27T16:40:46.792Z,950.06
2019-04-27T16:43:13.154Z,949.87
2019-04-27T16:45:39.498Z,949.83
2019-04-27T16:48:05.816Z,950.08
2019-04-27T16:50:32.171Z,949.92
2019-04-27T16:53:00.959Z,949.88
2019-04-27T16:55:28.023Z,949.90
2019-04-27T16:57:51.162Z,949.89
2019-04-27T17:00:18.271Z,949.80
2019-04-27T17:02:43.786Z,949.77
2019-04-27T17:05:10.222Z,949.81
2019-04-27T17:07:37.750Z,949.63
2019-04-27T17:10:02.906Z,949.72
2019-04-27T17:12:34.344Z,949.71
2019-04-27T17:14:55.572Z,949.70
2019-04-27T17:17:21.859Z,949.57
2019-04-27T17:19:51.575Z,949.57
2019-04-27T17:22:16.201Z,949.53
2019-04-27T17:24:46.385Z,949.53
2019-04-27T17:27:11.092Z,949.45
2019-04-27T17:29:33.493Z,949.44
2019-04-27T17:32:00.165Z,949.57
2019-04-27T17:34:26.417Z,949.55
2019-04-27T17:36:54.695Z,949.48
2019-04-27T17:39:19.305Z,949.58
2019-04-27T17:41:49.126Z,949.57
2019-04-27T17:44:12.830Z,949.63
2019-04-27T17:46:38.551Z,949.62
2019-04-27T17:49:04.108Z,949.60
2019-04-27T17:51:30.950Z,949.60
2019-04-27T17:53:58.492Z,949.66
2019-04-27T17:56:33.284Z,949.73
2019-04-27T17:58:52.141Z,949.86
2019-04-27T18:01:19.114Z,949.89
2019-04-27T18:03:42.045Z,949.87
2019-04-27T18:06:08.719Z,950.01
2019-04-27T18:08:34.711Z,950.04
2019-04-27T18:11:03.234Z,950.16
2019-04-27T18:13:28.844Z,950.20
2019-04-27T18:15:54.290Z,950.19
2019-04-27T18:18:22.841Z,950.30
2019-04-27T18:20:47.734Z,950.44
2019-04-27T18:23:15.080Z,950.53
2019-04-27T18:25:40.452Z,950.52
2019-04-27T18:28:08.051Z,950.62
2019-04-27T18:30:33.744Z,950.64
2019-04-27T18:33:02.001Z,950.64
2019-04-27T18:35:26.369Z,950.68
2019-04-27T18:37:53.584Z,950.59
2019-04-27T18:40:18.184Z,950.66
2019-04-27T18:42:43.255Z,950.60
2019-04-27T18:45:09.590Z,950.63
2019-04-27T18:47:38.566Z,950.60
2019-04-27T18:50:10.880Z,950.65
2019-04-27T18:52:28.576Z,950.63
2019-04-27T18:54:54.938Z,950.69
2019-04-27T18:57:21.241Z,950.75
2019-04-27T18:59:48.258Z,950.70
2019-04-27T19:02:13.904Z,950.66
2019-04-27T19:04:40.214Z,950.64
2019-04-27T19:07:06.549Z,950.65
2019-04-27T19:09:32.856Z,950.44
2019-04-27T19:11:59.194Z,950.54
2019-04-27T19:14:25.506Z,950.52
2019-04-27T19:16:51.841Z,950.55
2019-04-27T19:19:18.946Z,950.55
2019-04-27T19:21:44.483Z,950.52
2019-04-27T19:24:10.814Z,950.53
2019-04-27T19:26:38.270Z,950.56
2019-04-27T19:29:03.459Z,950.54
2019-04-27T19:31:29.867Z,950.56
2019-04-27T19:33:56.192Z,950.63
2019-04-27T19:36:22.525Z,950.64
2019-04-27T19:38:49.743Z,950.54
2019-04-27T19:41:15.157Z,950.61
2019-04-27T19:43:41.521Z,950.61
2019-04-27T19:46:07.838Z,950.65
2019-04-27T19:48:34.172Z,950.62
2019-04-27T19:51:00.487Z,950.62
2019-04-27T19:53:26.821Z,950.63
2019-04-27T19:55:53.131Z,950.60
2019-04-27T19:58:19.866Z,950.60
2019-04-27T20:00:45.777Z,950.64
2019-04-27T20:03:12.091Z,950.61
2019-04-27T20:05:38.871Z,950.51
2019-04-27T20:08:04.739Z,950.50
2019-04-27T20:10:34.173Z,950.54
2019-04-27T20:12:57.388Z,950.48
2019-04-27T20:15:23.761Z,950.44
2019-04-27T20:17:50.801Z,950.43
2019-04-27T20:20:16.397Z,950.42
2019-04-27T20:22:42.730Z,950.30
2019-04-27T20:25:09.058Z,950.36
2019-04-27T20:27:46.273Z,950.29
2019-04-27T20:30:03.045Z,950.29
2019-04-27T20:32:28.030Z,950.31
2019-04-27T20:34:54.339Z,950.21
2019-04-27T20:37:21.128Z,950.27
2019-04-27T20:39:47.051Z,950.22
2019-04-27T20:42:13.357Z,950.24
2019-04-27T20:44:41.243Z,950.35
2019-04-27T20:47:06.013Z,950.31
2019-04-27T20:49:32.327Z,950.29
2019-04-27T20:51:58.670Z,950.21
2019-04-27T20:54:24.978Z,950.16
2019-04-27T20:56:53.511Z,950.26
2019-04-27T20:59:17.637Z,950.22
2019-04-27T21:01:43.962Z,950.08
2019-04-27T21:04:10.984Z,950.08
2019-04-27T21:06:36.602Z,950.05
2019-04-27T21:09:03.147Z,950.11
2019-04-27T21:11:30.772Z,950.07
2019-04-27T21:13:57.052Z,950.02
2019-04-27T21:16:21.914Z,950.08
2019-04-27T21:18:48.259Z,950.08
2019-04-27T21:21:14.592Z,950.10
2019-04-27T21:23:41.463Z,950.06
2019-04-27T21:26:07.236Z,950.06
2019-04-27T21:28:33.547Z,950.07
2019-04-27T21:30:59.887Z,949.97
2019-04-27T21:33:26.207Z,950.01
2019-04-27T21:35:52.556Z,949.98
2019-04-27T21:38:18.881Z,950.00
2019-04-27T21:40:45.186Z,950.05
2019-04-27T21:43:11.525Z,950.01
2019-04-27T21:45:37.827Z,950.05
2019-04-27T21:48:04.164Z,950.04
2019-04-27T21:50:31.451Z,949.99
2019-04-27T21:52:56.833Z,950.04
2019-04-27T21:55:23.167Z,949.97
2019-04-27T21:57:51.200Z,949.95
2019-04-27T22:00:15.813Z,949.99
2019-04-27T22:02:42.155Z,950.00
2019-04-27T22:05:08.468Z,950.00
2019-04-27T22:07:37.427Z,950.04
2019-04-27T22:10:02.023Z,950.05
2019-04-27T22:12:27.451Z,950.01
2019-04-27T22:14:53.779Z,950.08
2019-04-27T22:17:20.092Z,950.06
2019-04-27T22:19:46.430Z,950.08
2019-04-27T22:22:12.751Z,950.06
2019-04-27T22:24:39.080Z,950.05
2019-04-27T22:27:05.388Z,949.99
2019-04-27T22:29:32.219Z,950.06
2019-04-27T22:31:58.032Z,950.05
2019-04-27T22:34:24.346Z,950.07
2019-04-27T22:36:50.680Z,950.09
2019-04-27T22:39:17.019Z,950.03
2019-04-27T22:41:43.377Z,949.97
2019-04-27T22:44:11.403Z,950.02
2019-04-27T22:46:36.013Z,950.07
2019-04-27T22:49:02.358Z,950.02
2019-04-27T22:51:28.668Z,949.96
2019-04-27T22:53:54.982Z,949.98
2019-04-27T22:56:22.237Z,949.95
2019-04-27T22:58:59.948Z,949.97
2019-04-27T23:01:13.968Z,949.90
2019-04-27T23:03:41.417Z,949.70
2019-04-27T23:06:06.615Z,949.80
2019-04-27T23:08:32.930Z,949.86
2019-04-27T23:11:00.573Z,949.94
2019-04-27T23:13:25.629Z,949.86
2019-04-27T23:15:51.962Z,949.90
2019-04-27T23:18:18.396Z,949.87
2019-04-27T23:20:44.721Z,949.84
2019-04-27T23:23:11.421Z,949.84
2019-04-27T23:25:37.407Z,949.83
2019-04-27T23:28:03.717Z,949.81
2019-04-27T23:30:31.223Z,949.85
2019-04-27T23:32:56.388Z,949.87
2019-04-27T23:35:22.704Z,950.01
2019-04-27T23:37:50.789Z,949.91
2019-04-27T23:40:15.354Z,949.92
2019-04-27T23:42:41.804Z,949.80
2019-04-27T23:45:08.011Z,949.85
2019-04-27T23:47:34.380Z,949.80
2019-04-27T23:50:00.927Z,949.85
2019-04-27T23:52:27.008Z,949.90
2019-04-27T23:54:53.343Z,949.93
2019-04-27T23:57:19.656Z,949.87
2019-04-27T23:59:46.035Z,949.92
